Time;durP1;ratioP1;P1;durP2;ratioP2;P2;SDS_P1;SDS_P2;PMS_P1;PMS_P2;Temp;Humidity;BMP_temperature;BMP_pressure;BME280_temperature;BME280_humidity;BME280_pressure;Samples;Min_cycle;Max_cycle;Signal;HPM_P1;HPM_P2
2023/07/30 00:00:02;;;;;;;6.30;2.78;;;;;;;;;;10208887;29;20027;-74
2023/07/30 00:05:03;;;;;;;2.92;2.33;;;;;;;;;;10186179;29;20118;-79
2023/07/30 00:10:03;;;;;;;4.13;2.53;;;;;;;;;;10191737;29;20086;-80
2023/07/30 00:15:04;;;;;;;6.47;2.30;;;;;;;;;;10185147;29;20019;-78
2023/07/30 00:20:05;;;;;;;2.35;2.03;;;;;;;;;;10178241;29;20024;-78
2023/07/30 00:25:05;;;;;;;4.88;2.75;;;;;;;;;;10187522;29;20024;-79
2023/07/30 00:30:06;;;;;;;5.90;2.35;;;;;;;;;;10183697;29;20012;-76
2023/07/30 00:35:06;;;;;;;3.95;2.47;;;;;;;;;;10195288;29;20020;-73
2023/07/30 00:40:07;;;;;;;4.07;2.38;;;;;;;;;;10199024;29;20016;-78
2023/07/30 00:45:10;;;;;;;3.75;2.25;;;;;;;;;;10185017;29;20039;-76
2023/07/30 00:50:11;;;;;;;4.65;2.45;;;;;;;;;;10186505;29;20055;-82
2023/07/30 00:55:12;;;;;;;4.15;2.83;;;;;;;;;;10185189;29;20028;-81
2023/07/30 01:00:12;;;;;;;5.87;2.00;;;;;;;;;;10183065;29;20024;-75
2023/07/30 01:05:12;;;;;;;3.53;2.08;;;;;;;;;;10188301;29;20070;-79
2023/07/30 01:10:13;;;;;;;5.17;2.20;;;;;;;;;;10175112;29;20052;-79
2023/07/30 01:15:13;;;;;;;3.03;2.63;;;;;;;;;;10174990;29;20099;-81
2023/07/30 01:20:14;;;;;;;3.30;2.45;;;;;;;;;;10193241;29;20143;-75
2023/07/30 01:25:14;;;;;;;2.90;2.53;;;;;;;;;;10177383;29;20503;-76
2023/07/30 01:30:21;;;;;;;3.42;2.47;;;;;;;;;;10177668;29;20151;-74
2023/07/30 01:35:25;;;;;;;5.95;2.88;;;;;;;;;;10190768;29;20409;-74
2023/07/30 01:40:25;;;;;;;2.53;1.92;;;;;;;;;;10199121;29;20098;-82
2023/07/30 01:45:27;;;;;;;3.73;2.80;;;;;;;;;;10200368;29;20419;-79
2023/07/30 01:50:27;;;;;;;2.95;2.13;;;;;;;;;;10185309;29;20416;-76
2023/07/30 01:55:27;;;;;;;3.35;2.15;;;;;;;;;;10193206;29;20042;-77
2023/07/30 02:00:28;;;;;;;4.40;2.40;;;;;;;;;;10181530;29;20082;-78
2023/07/30 02:05:28;;;;;;;4.10;2.33;;;;;;;;;;10177566;29;20075;-79
2023/07/30 02:10:29;;;;;;;5.70;2.92;;;;;;;;;;10178958;29;20081;-77
2023/07/30 02:15:29;;;;;;;4.75;2.70;;;;;;;;;;10188139;29;20098;-74
2023/07/30 02:20:29;;;;;;;5.13;2.60;;;;;;;;;;10178980;29;20469;-74
2023/07/30 02:25:31;;;;;;;5.47;2.63;;;;;;;;;;10189285;29;20103;-81
2023/07/30 02:30:32;;;;;;;3.30;2.63;;;;;;;;;;10193794;29;20111;-78
2023/07/30 02:35:33;;;;;;;4.57;2.70;;;;;;;;;;10181674;29;20510;-79
2023/07/30 02:40:33;;;;;;;4.63;3.10;;;;;;;;;;10175825;29;20031;-80
2023/07/30 02:45:33;;;;;;;3.70;2.80;;;;;;;;;;10185092;29;20091;-74
2023/07/30 02:50:34;;;;;;;4.03;2.67;;;;;;;;;;10178120;29;20083;-77
2023/07/30 02:55:34;;;;;;;8.90;3.63;;;;;;;;;;10190173;29;20035;-78
2023/07/30 03:00:34;;;;;;;6.90;3.10;;;;;;;;;;10182047;29;20036;-78
2023/07/30 03:05:35;;;;;;;5.30;3.00;;;;;;;;;;10189950;29;20446;-79
2023/07/30 03:10:38;;;;;;;9.10;3.10;;;;;;;;;;10206239;28;20080;-78
2023/07/30 03:15:39;;;;;;;7.40;2.70;;;;;;;;;;10182116;29;20495;-78
2023/07/30 03:20:40;;;;;;;9.00;5.95;;;;;;;;;;10188154;29;20086;-78
2023/07/30 03:25:41;;;;;;;7.88;3.80;;;;;;;;;;10177371;29;20040;-77
2023/07/30 03:30:41;;;;;;;5.65;3.45;;;;;;;;;;10191271;29;20032;-75
2023/07/30 03:35:42;;;;;;;4.90;2.58;;;;;;;;;;10204015;29;20547;-75
2023/07/30 03:40:42;;;;;;;3.45;2.58;;;;;;;;;;10190512;29;20046;-74
2023/07/30 03:45:43;;;;;;;4.60;2.92;;;;;;;;;;10197561;29;20122;-80
2023/07/30 03:50:43;;;;;;;3.83;3.25;;;;;;;;;;10186672;29;20020;-80
2023/07/30 03:55:43;;;;;;;3.45;2.63;;;;;;;;;;10187284;29;20077;-79
2023/07/30 04:00:44;;;;;;;5.05;3.35;;;;;;;;;;10189349;29;20043;-79
2023/07/30 04:05:44;;;;;;;6.80;3.53;;;;;;;;;;10198592;29;20602;-76
2023/07/30 04:10:44;;;;;;;3.50;2.97;;;;;;;;;;10205146;28;20501;-78
2023/07/30 04:15:47;;;;;;;5.45;3.08;;;;;;;;;;10192528;29;20032;-80
2023/07/30 04:20:47;;;;;;;6.30;3.88;;;;;;;;;;10193088;29;20028;-79
2023/07/30 04:25:54;;;;;;;5.67;3.43;;;;;;;;;;10202185;29;20031;-78
2023/07/30 04:30:54;;;;;;;7.57;4.18;;;;;;;;;;10185194;29;20028;-76
2023/07/30 04:35:54;;;;;;;4.57;3.40;;;;;;;;;;10188152;29;20031;-77
2023/07/30 04:40:57;;;;;;;5.55;3.80;;;;;;;;;;10203553;29;20058;-76
2023/07/30 04:45:57;;;;;;;4.78;3.47;;;;;;;;;;10189325;29;20503;-77
2023/07/30 04:50:57;;;;;;;5.25;3.50;;;;;;;;;;10167141;29;20026;-75
2023/07/30 04:55:58;;;;;;;5.13;3.33;;;;;;;;;;10192485;29;20420;-77
2023/07/30 05:00:58;;;;;;;5.25;3.20;;;;;;;;;;10187912;29;20036;-77
2023/07/30 05:05:59;;;;;;;4.43;3.63;;;;;;;;;;10183921;29;20042;-79
2023/07/30 05:10:59;;;;;;;6.15;3.15;;;;;;;;;;10186428;29;20055;-73
2023/07/30 05:15:59;;;;;;;4.10;3.17;;;;;;;;;;10187616;29;20539;-75
2023/07/30 05:21:00;;;;;;;5.93;3.20;;;;;;;;;;10174871;29;20027;-74
2023/07/30 05:26:01;;;;;;;3.85;3.40;;;;;;;;;;10187416;29;20032;-80
2023/07/30 05:31:01;;;;;;;4.68;3.97;;;;;;;;;;10186824;29;20023;-79
2023/07/30 05:36:02;;;;;;;4.93;3.35;;;;;;;;;;10201287;29;20031;-75
2023/07/30 05:41:02;;;;;;;7.43;3.87;;;;;;;;;;10179077;29;20032;-79
2023/07/30 05:46:02;;;;;;;6.93;3.55;;;;;;;;;;10194402;29;20032;-79
2023/07/30 05:51:02;;;;;;;3.40;2.50;;;;;;;;;;10212894;28;20031;-78
2023/07/30 05:56:03;;;;;;;4.18;3.15;;;;;;;;;;10200132;29;20046;-82
2023/07/30 06:01:03;;;;;;;4.67;3.40;;;;;;;;;;10189315;29;20032;-74
2023/07/30 06:06:03;;;;;;;5.55;3.00;;;;;;;;;;10190462;29;20540;-75
2023/07/30 06:11:04;;;;;;;4.30;2.83;;;;;;;;;;10199988;28;20492;-74
2023/07/30 06:16:04;;;;;;;7.20;2.70;;;;;;;;;;10225148;28;20443;-81
2023/07/30 06:21:04;;;;;;;4.88;2.33;;;;;;;;;;10216315;28;20407;-78
2023/07/30 06:26:05;;;;;;;5.45;2.58;;;;;;;;;;10239544;28;20488;-75
2023/07/30 06:31:05;;;;;;;4.80;2.40;;;;;;;;;;10214241;29;20106;-78
2023/07/30 06:36:05;;;;;;;3.53;2.30;;;;;;;;;;10215747;29;20058;-79
2023/07/30 06:41:06;;;;;;;5.97;2.40;;;;;;;;;;10240642;29;20641;-74
2023/07/30 06:46:06;;;;;;;5.22;2.17;;;;;;;;;;10219908;28;20023;-76
2023/07/30 06:51:07;;;;;;;4.38;2.30;;;;;;;;;;10242548;28;20019;-82
2023/07/30 06:56:07;;;;;;;3.05;2.20;;;;;;;;;;10214760;29;20534;-82
2023/07/30 07:01:07;;;;;;;3.38;2.38;;;;;;;;;;10209671;29;20392;-74
2023/07/30 07:06:08;;;;;;;4.68;2.08;;;;;;;;;;10231278;28;20034;-80
2023/07/30 07:11:08;;;;;;;4.97;2.20;;;;;;;;;;10222369;28;20472;-78
2023/07/30 07:16:09;;;;;;;4.70;2.15;;;;;;;;;;10231496;28;20035;-79
2023/07/30 07:21:10;;;;;;;2.78;2.03;;;;;;;;;;10216926;28;20077;-72
2023/07/30 07:26:10;;;;;;;2.70;1.98;;;;;;;;;;10216092;28;20047;-74
2023/07/30 07:31:10;;;;;;;2.83;1.70;;;;;;;;;;10213121;28;20098;-78
2023/07/30 07:36:10;;;;;;;5.28;2.70;;;;;;;;;;10229127;28;20035;-74
2023/07/30 07:41:16;;;;;;;4.35;1.83;;;;;;;;;;10201171;29;20032;-77
2023/07/30 07:46:16;;;;;;;6.90;1.90;;;;;;;;;;10230150;28;20015;-82
2023/07/30 07:51:16;;;;;;;5.60;2.30;;;;;;;;;;10213890;29;20674;-76
2023/07/30 07:56:17;;;;;;;2.30;1.70;;;;;;;;;;10201895;29;20492;-77
2023/07/30 08:01:17;;;;;;;1.98;1.65;;;;;;;;;;10211975;28;20388;-75
2023/07/30 08:06:17;;;;;;;6.85;2.03;;;;;;;;;;10209489;28;20372;-74
2023/07/30 08:11:18;;;;;;;4.13;1.80;;;;;;;;;;10206552;29;20019;-78
2023/07/30 08:16:19;;;;;;;3.97;2.10;;;;;;;;;;10227253;28;20503;-79
2023/07/30 08:21:20;;;;;;;6.40;2.40;;;;;;;;;;10203206;29;20121;-75
2023/07/30 08:26:20;;;;;;;6.47;1.98;;;;;;;;;;10207142;29;20073;-73
2023/07/30 08:31:20;;;;;;;2.70;1.80;;;;;;;;;;10205175;29;20448;-74
2023/07/30 08:36:21;;;;;;;2.92;2.10;;;;;;;;;;10217681;28;20484;-73
2023/07/30 08:41:21;;;;;;;5.18;2.08;;;;;;;;;;10237125;29;20498;-83
2023/07/30 08:46:21;;;;;;;3.17;1.80;;;;;;;;;;10216787;28;20027;-74
2023/07/30 08:51:22;;;;;;;4.17;1.90;;;;;;;;;;10226852;28;20389;-79
2023/07/30 08:56:22;;;;;;;2.93;1.70;;;;;;;;;;10210440;29;20434;-78
2023/07/30 09:01:26;;;;;;;4.87;2.43;;;;;;;;;;10216080;29;20020;-74
2023/07/30 09:06:27;;;;;;;2.97;1.67;;;;;;;;;;10223225;29;20306;-79
2023/07/30 09:11:27;;;;;;;3.20;1.30;;;;;;;;;;10226266;28;20030;-76
2023/07/30 09:16:28;;;;;;;5.40;1.95;;;;;;;;;;10227112;28;20455;-82
2023/07/30 09:21:32;;;;;;;1.75;1.55;;;;;;;;;;10209271;29;20593;-74
2023/07/30 09:26:45;;;;;;;2.70;2.05;;;;;;;;;;10212081;29;20085;-79
2023/07/30 09:31:47;;;;;;;1.93;1.63;;;;;;;;;;10204657;28;20031;-78
2023/07/30 09:36:48;;;;;;;3.28;1.63;;;;;;;;;;10218423;28;20480;-78
2023/07/30 09:41:49;;;;;;;2.95;1.60;;;;;;;;;;10232771;28;20031;-76
2023/07/30 09:46:50;;;;;;;3.22;1.60;;;;;;;;;;10221441;28;20031;-80
2023/07/30 09:51:51;;;;;;;1.50;1.20;;;;;;;;;;10207260;28;20032;-78
2023/07/30 09:56:52;;;;;;;2.45;1.35;;;;;;;;;;10206283;29;20511;-75
2023/07/30 10:01:55;;;;;;;1.97;1.30;;;;;;;;;;10211211;28;20106;-78
2023/07/30 10:07:01;;;;;;;2.08;1.60;;;;;;;;;;10220284;28;20082;-79
2023/07/30 10:12:01;;;;;;;3.03;1.23;;;;;;;;;;10230865;28;20031;-78
2023/07/30 10:17:01;;;;;;;2.83;1.50;;;;;;;;;;10197272;29;20031;-74
2023/07/30 10:22:11;;;;;;;2.40;1.40;;;;;;;;;;10207223;28;20027;-73
2023/07/30 10:27:22;;;;;;;5.07;1.50;;;;;;;;;;10216344;29;20511;-75
2023/07/30 10:32:22;;;;;;;1.50;1.38;;;;;;;;;;10194421;29;20484;-79
2023/07/30 10:37:24;;;;;;;3.20;1.67;;;;;;;;;;10202167;29;20024;-74
2023/07/30 10:42:32;;;;;;;2.33;1.58;;;;;;;;;;10211658;28;20039;-80
2023/07/30 10:47:34;;;;;;;2.65;1.52;;;;;;;;;;10223793;28;20129;-79
2023/07/30 10:52:35;;;;;;;4.95;1.80;;;;;;;;;;10218284;29;20479;-79
2023/07/30 10:57:39;;;;;;;4.22;1.95;;;;;;;;;;10204826;29;20027;-78
2023/07/30 11:02:39;;;;;;;2.00;1.75;;;;;;;;;;10208038;28;20030;-76
2023/07/30 11:07:48;;;;;;;2.20;1.77;;;;;;;;;;10220960;28;20535;-75
2023/07/30 11:12:49;;;;;;;3.95;2.13;;;;;;;;;;10228277;28;20089;-73
2023/07/30 11:17:51;;;;;;;3.53;2.63;;;;;;;;;;10219207;29;20028;-79
2023/07/30 11:22:52;;;;;;;3.45;2.35;;;;;;;;;;10218361;28;20023;-76
2023/07/30 11:27:53;;;;;;;6.90;2.73;;;;;;;;;;10243163;28;20035;-76
2023/07/30 11:32:55;;;;;;;5.63;2.67;;;;;;;;;;10210095;29;20019;-81
2023/07/30 11:37:57;;;;;;;3.78;2.90;;;;;;;;;;10211364;29;20481;-80
2023/07/30 11:42:58;;;;;;;3.38;2.72;;;;;;;;;;10209089;29;20038;-76
2023/07/30 11:48:08;;;;;;;5.43;2.83;;;;;;;;;;10238782;29;20385;-80
2023/07/30 11:53:08;;;;;;;3.50;2.70;;;;;;;;;;10217307;28;20019;-78
2023/07/30 11:58:12;;;;;;;7.70;2.90;;;;;;;;;;10215718;29;20411;-79
2023/07/30 12:03:13;;;;;;;3.58;2.70;;;;;;;;;;10225262;28;20528;-76
2023/07/30 12:08:16;;;;;;;3.00;2.50;;;;;;;;;;10201173;28;20054;-78
2023/07/30 12:13:17;;;;;;;6.00;2.33;;;;;;;;;;10227354;28;20051;-74
2023/07/30 12:18:17;;;;;;;8.38;3.35;;;;;;;;;;10226112;28;20492;-74
2023/07/30 12:23:17;;;;;;;6.03;3.03;;;;;;;;;;10203147;29;20031;-72
2023/07/30 12:28:18;;;;;;;3.10;2.60;;;;;;;;;;10227771;29;20062;-75
2023/07/30 12:33:18;;;;;;;4.40;2.92;;;;;;;;;;10217491;28;20027;-74
2023/07/30 12:38:19;;;;;;;4.82;2.70;;;;;;;;;;10210185;29;20023;-73
2023/07/30 12:43:20;;;;;;;4.93;3.20;;;;;;;;;;10213590;28;20590;-78
2023/07/30 12:48:20;;;;;;;5.85;3.78;;;;;;;;;;10246718;28;20353;-77
2023/07/30 12:53:20;;;;;;;3.00;2.55;;;;;;;;;;10212056;28;20399;-78
2023/07/30 12:58:21;;;;;;;5.30;3.57;;;;;;;;;;10227497;28;20031;-80
2023/07/30 13:03:22;;;;;;;3.65;2.63;;;;;;;;;;10227211;29;20027;-77
2023/07/30 13:08:22;;;;;;;3.30;3.00;;;;;;;;;;10226239;29;20055;-79
2023/07/30 13:13:23;;;;;;;2.90;2.53;;;;;;;;;;10225028;28;20529;-78
2023/07/30 13:18:24;;;;;;;4.60;3.40;;;;;;;;;;10209585;29;20019;-79
2023/07/30 13:23:25;;;;;;;5.87;2.93;;;;;;;;;;10209533;28;20031;-74
2023/07/30 13:28:25;;;;;;;5.30;3.05;;;;;;;;;;10192852;29;20122;-80
2023/07/30 13:33:26;;;;;;;6.33;3.03;;;;;;;;;;10182616;29;20039;-74
2023/07/30 13:38:27;;;;;;;7.38;3.25;;;;;;;;;;10207866;29;20056;-74
2023/07/30 13:43:28;;;;;;;5.85;3.42;;;;;;;;;;10215545;29;20054;-75
2023/07/30 13:48:28;;;;;;;8.93;3.15;;;;;;;;;;10207092;29;20132;-78
2023/07/30 13:53:30;;;;;;;5.20;3.15;;;;;;;;;;10227132;29;20027;-75
2023/07/30 13:58:30;;;;;;;3.88;3.13;;;;;;;;;;10225102;28;20114;-74
2023/07/30 14:03:30;;;;;;;6.47;2.85;;;;;;;;;;10198614;29;20027;-76
2023/07/30 14:08:31;;;;;;;11.57;3.53;;;;;;;;;;10218054;28;20055;-79
2023/07/30 14:13:31;;;;;;;11.63;5.07;;;;;;;;;;10220023;29;20045;-81
2023/07/30 14:18:31;;;;;;;8.77;3.20;;;;;;;;;;10243309;28;20035;-74
2023/07/30 14:23:32;;;;;;;6.15;3.25;;;;;;;;;;10239401;28;20038;-73
2023/07/30 14:28:32;;;;;;;4.40;2.63;;;;;;;;;;10219283;28;20063;-73
2023/07/30 14:33:33;;;;;;;5.80;3.63;;;;;;;;;;10236146;28;20044;-74
2023/07/30 14:38:34;;;;;;;4.05;3.17;;;;;;;;;;10237508;28;20286;-78
2023/07/30 14:43:34;;;;;;;4.35;2.97;;;;;;;;;;10238937;28;20506;-73
2023/07/30 14:48:34;;;;;;;6.33;3.63;;;;;;;;;;10225713;28;20380;-77
2023/07/30 14:53:35;;;;;;;4.25;3.03;;;;;;;;;;10227694;29;20479;-73
2023/07/30 14:58:35;;;;;;;6.10;3.35;;;;;;;;;;10226541;28;20031;-74
2023/07/30 15:03:35;;;;;;;7.25;3.22;;;;;;;;;;10243151;28;20058;-78
2023/07/30 15:08:35;;;;;;;6.80;3.70;;;;;;;;;;10211606;29;20047;-74
2023/07/30 15:13:36;;;;;;;4.35;3.65;;;;;;;;;;10233229;28;20393;-75
2023/07/30 15:18:36;;;;;;;10.65;4.10;;;;;;;;;;10216663;29;20031;-79
2023/07/30 15:23:36;;;;;;;5.47;3.80;;;;;;;;;;10214954;28;20038;-77
2023/07/30 15:28:36;;;;;;;5.25;4.35;;;;;;;;;;10205613;29;20468;-79
2023/07/30 15:33:37;;;;;;;6.82;3.53;;;;;;;;;;10215462;29;20479;-73
2023/07/30 15:38:37;;;;;;;11.15;6.70;;;;;;;;;;10211514;28;20027;-78
2023/07/30 15:43:37;;;;;;;5.95;3.90;;;;;;;;;;10222954;29;20019;-76
2023/07/30 15:48:38;;;;;;;5.18;4.20;;;;;;;;;;10213754;28;20028;-73
2023/07/30 15:53:38;;;;;;;7.90;3.93;;;;;;;;;;10201137;29;20020;-77
2023/07/30 15:58:38;;;;;;;10.20;4.25;;;;;;;;;;10212873;29;20019;-75
2023/07/30 16:03:39;;;;;;;6.97;4.07;;;;;;;;;;10213266;28;20024;-77
2023/07/30 16:08:39;;;;;;;4.23;3.67;;;;;;;;;;10229855;28;20291;-76
2023/07/30 16:13:39;;;;;;;7.50;4.23;;;;;;;;;;10219458;28;20507;-73
2023/07/30 16:18:43;;;;;;;9.80;6.53;;;;;;;;;;10206615;29;20704;-78
2023/07/30 16:23:43;;;;;;;13.60;7.43;;;;;;;;;;10225698;28;20070;-78
2023/07/30 16:28:45;;;;;;;8.85;4.35;;;;;;;;;;10206708;28;20437;-80
2023/07/30 16:33:45;;;;;;;5.22;4.40;;;;;;;;;;10227552;28;20032;-76
2023/07/30 16:38:46;;;;;;;8.02;4.97;;;;;;;;;;10205811;29;20030;-75
2023/07/30 16:43:48;;;;;;;5.90;3.78;;;;;;;;;;10185804;29;20031;-74
2023/07/30 16:48:48;;;;;;;5.63;4.38;;;;;;;;;;10217278;29;20102;-74
2023/07/30 16:53:48;;;;;;;7.80;4.25;;;;;;;;;;10224548;28;20022;-75
2023/07/30 16:58:49;;;;;;;10.18;4.20;;;;;;;;;;10237801;28;20031;-74
2023/07/30 17:03:49;;;;;;;17.02;6.15;;;;;;;;;;10219737;28;20121;-78
2023/07/30 17:08:49;;;;;;;6.85;5.32;;;;;;;;;;10196776;28;20135;-79
2023/07/30 17:13:54;;;;;;;9.25;3.92;;;;;;;;;;10223662;28;20495;-80
2023/07/30 17:18:54;;;;;;;8.90;4.63;;;;;;;;;;10200853;28;20047;-77
2023/07/30 17:23:54;;;;;;;11.93;4.00;;;;;;;;;;10228395;29;20027;-81
2023/07/30 17:28:55;;;;;;;15.70;4.53;;;;;;;;;;10234609;28;20035;-77
2023/07/30 17:33:55;;;;;;;7.47;4.45;;;;;;;;;;10208854;28;20174;-75
2023/07/30 17:38:55;;;;;;;10.20;4.18;;;;;;;;;;10199323;28;20455;-79
2023/07/30 17:43:56;;;;;;;7.68;4.13;;;;;;;;;;10211510;29;20035;-78
2023/07/30 17:48:57;;;;;;;8.23;3.77;;;;;;;;;;10208757;29;20514;-82
2023/07/30 17:53:59;;;;;;;5.38;3.72;;;;;;;;;;10235160;28;20451;-77
2023/07/30 17:58:59;;;;;;;7.93;4.05;;;;;;;;;;10224649;28;20030;-74
2023/07/30 18:04:01;;;;;;;5.93;3.15;;;;;;;;;;10197683;28;20027;-83
2023/07/30 18:09:03;;;;;;;6.72;4.55;;;;;;;;;;10212529;29;20206;-79
2023/07/30 18:14:03;;;;;;;11.45;4.30;;;;;;;;;;10222893;29;20030;-77
2023/07/30 18:19:04;;;;;;;7.60;5.03;;;;;;;;;;10235488;28;20027;-78
2023/07/30 18:24:05;;;;;;;8.90;4.68;;;;;;;;;;10230128;29;20574;-78
2023/07/30 18:29:05;;;;;;;8.98;4.30;;;;;;;;;;10223232;28;20031;-77
2023/07/30 18:34:06;;;;;;;9.18;5.32;;;;;;;;;;10238780;28;20024;-76
2023/07/30 18:39:06;;;;;;;8.10;6.10;;;;;;;;;;10225894;29;20495;-73
2023/07/30 18:44:07;;;;;;;13.73;5.45;;;;;;;;;;10221150;28;20055;-80
2023/07/30 18:49:07;;;;;;;8.60;5.33;;;;;;;;;;10227119;28;20615;-80
2023/07/30 18:54:08;;;;;;;13.30;5.43;;;;;;;;;;10221325;29;20053;-74
2023/07/30 18:59:09;;;;;;;7.88;5.50;;;;;;;;;;10221767;29;20028;-79
2023/07/30 19:04:10;;;;;;;14.30;5.90;;;;;;;;;;10213654;28;20481;-75
2023/07/30 19:09:10;;;;;;;19.47;6.40;;;;;;;;;;10235796;28;20079;-77
2023/07/30 19:14:10;;;;;;;10.43;5.77;;;;;;;;;;10229714;29;20476;-80
2023/07/30 19:19:11;;;;;;;16.40;6.13;;;;;;;;;;10231198;28;20190;-79
2023/07/30 19:24:13;;;;;;;9.20;5.45;;;;;;;;;;10226299;29;20096;-77
2023/07/30 19:29:13;;;;;;;10.73;5.55;;;;;;;;;;10227894;28;20027;-77
2023/07/30 19:34:13;;;;;;;10.77;5.87;;;;;;;;;;10214158;28;20028;-78
2023/07/30 19:39:14;;;;;;;15.75;6.28;;;;;;;;;;10220127;28;20362;-75
2023/07/30 19:44:14;;;;;;;10.88;5.88;;;;;;;;;;10241476;28;20147;-79
2023/07/30 19:49:14;;;;;;;15.37;7.90;;;;;;;;;;10228693;28;20039;-80
2023/07/30 19:54:16;;;;;;;10.75;5.90;;;;;;;;;;10239889;28;20510;-76
2023/07/30 19:59:16;;;;;;;16.25;5.90;;;;;;;;;;10228293;28;20134;-75
2023/07/30 20:04:18;;;;;;;9.18;4.15;;;;;;;;;;10211679;29;20031;-87
2023/07/30 20:09:18;;;;;;;9.25;4.47;;;;;;;;;;10207484;29;20067;-77
2023/07/30 20:14:19;;;;;;;4.93;3.95;;;;;;;;;;10226395;28;20078;-78
2023/07/30 20:19:20;;;;;;;7.13;3.90;;;;;;;;;;10245565;28;20130;-80
2023/07/30 20:24:21;;;;;;;8.25;4.80;;;;;;;;;;10247846;28;20023;-76
2023/07/30 20:29:21;;;;;;;6.53;4.65;;;;;;;;;;10202121;29;20550;-80
2023/07/30 20:34:22;;;;;;;8.80;4.50;;;;;;;;;;10217815;28;20081;-82
2023/07/30 20:39:22;;;;;;;8.43;3.80;;;;;;;;;;10213370;28;20476;-81
2023/07/30 20:44:22;;;;;;;9.07;3.77;;;;;;;;;;10219919;28;20572;-82
2023/07/30 20:49:23;;;;;;;7.77;3.57;;;;;;;;;;10228704;28;20046;-82
2023/07/30 20:54:24;;;;;;;9.63;5.55;;;;;;;;;;10243965;28;20034;-78
2023/07/30 20:59:28;;;;;;;7.70;3.33;;;;;;;;;;10217988;28;20023;-75
2023/07/30 21:04:28;;;;;;;4.82;3.30;;;;;;;;;;10214503;29;20041;-83
2023/07/30 21:09:29;;;;;;;5.50;3.00;;;;;;;;;;10191916;29;20417;-82
2023/07/30 21:14:32;;;;;;;4.57;3.27;;;;;;;;;;10203146;29;20032;-84
2023/07/30 21:19:32;;;;;;;3.42;2.97;;;;;;;;;;10197481;29;20038;-84
2023/07/30 21:24:34;;;;;;;7.32;3.25;;;;;;;;;;10186372;29;20031;-82
2023/07/30 21:29:34;;;;;;;5.93;3.83;;;;;;;;;;10195127;29;20489;-81
2023/07/30 21:34:35;;;;;;;7.65;3.13;;;;;;;;;;10199231;29;20027;-82
2023/07/30 21:39:35;;;;;;;4.03;3.33;;;;;;;;;;10195289;29;20042;-81
2023/07/30 21:44:37;;;;;;;5.43;3.47;;;;;;;;;;10190935;29;20051;-85
2023/07/30 21:49:37;;;;;;;4.72;3.08;;;;;;;;;;10186032;29;20480;-81
2023/07/30 21:54:37;;;;;;;4.43;2.60;;;;;;;;;;10187195;29;20027;-85
2023/07/30 21:59:38;;;;;;;3.50;3.03;;;;;;;;;;10194643;29;20023;-82
2023/07/30 22:04:39;;;;;;;3.38;2.70;;;;;;;;;;10192631;29;20032;-85
2023/07/30 22:09:40;;;;;;;4.70;3.05;;;;;;;;;;10192148;29;20048;-88
2023/07/30 22:14:40;;;;;;;4.50;2.63;;;;;;;;;;10193898;29;20043;-78
2023/07/30 22:19:41;;;;;;;4.40;2.90;;;;;;;;;;10190711;29;20385;-88
2023/07/30 22:24:41;;;;;;;3.33;2.33;;;;;;;;;;10194498;29;20087;-81
2023/07/30 22:29:42;;;;;;;2.40;2.17;;;;;;;;;;10192434;29;20028;-88
2023/07/30 22:34:42;;;;;;;3.63;2.70;;;;;;;;;;10194325;29;20115;-76
2023/07/30 22:39:42;;;;;;;6.38;3.05;;;;;;;;;;10201600;29;20051;-80
2023/07/30 22:44:43;;;;;;;7.18;2.40;;;;;;;;;;10183469;29;21030;-81
2023/07/30 22:49:43;;;;;;;3.10;2.80;;;;;;;;;;10191049;29;20582;-81
2023/07/30 22:54:43;;;;;;;6.97;3.55;;;;;;;;;;10200322;29;20480;-79
2023/07/30 23:00:07;;;;;;;8.85;3.35;;;;;;;;;;10205407;29;20035;-76
2023/07/30 23:05:08;;;;;;;7.88;3.65;;;;;;;;;;10210934;28;20465;-80
2023/07/30 23:10:08;;;;;;;6.03;3.58;;;;;;;;;;10238013;28;20657;-82
2023/07/30 23:15:08;;;;;;;6.20;3.93;;;;;;;;;;10262434;28;20023;-80
2023/07/30 23:20:09;;;;;;;4.60;3.77;;;;;;;;;;10231184;28;20790;-80
2023/07/30 23:25:23;;;;;;;7.18;4.60;;;;;;;;;;10246324;28;20018;-84
2023/07/30 23:30:24;;;;;;;8.45;5.10;;;;;;;;;;10224416;29;20041;-80
2023/07/30 23:35:24;;;;;;;6.53;4.77;;;;;;;;;;10243022;28;20027;-81
2023/07/30 23:40:27;;;;;;;6.32;4.20;;;;;;;;;;10243814;28;20055;-81
2023/07/30 23:45:29;;;;;;;5.80;4.40;;;;;;;;;;10247161;28;20027;-84
2023/07/30 23:50:30;;;;;;;8.10;4.43;;;;;;;;;;10241989;28;20106;-80
2023/07/30 23:55:30;;;;;;;6.13;4.97;;;;;;;;;;10226199;28;20019;-82
